Time;durP1;ratioP1;P1;durP2;ratioP2;P2;SDS_P1;SDS_P2;PMS_P1;PMS_P2;Temp;Humidity;BMP_temperature;BMP_pressure;BME280_temperature;BME280_humidity;BME280_pressure;Samples;Min_cycle;Max_cycle;Signal;HPM_P1;HPM_P2
2023/12/01 00:01:12;;;;;;;26.58;18.95;;;;;;;;;;5081462;28;20059;-59
2023/12/01 00:03:39;;;;;;;30.00;20.75;;;;;;;;;;5082862;28;20055;-58
2023/12/01 00:06:06;;;;;;;29.05;20.23;;;;;;;;;;5082470;28;20044;-59
2023/12/01 00:08:34;;;;;;;32.08;22.15;;;;;;;;;;5082099;28;20056;-60
2023/12/01 00:11:01;;;;;;;31.40;21.33;;;;;;;;;;5083961;28;20390;-58
2023/12/01 00:13:27;;;;;;;33.28;21.58;;;;;;;;;;5081378;28;20405;-59
2023/12/01 00:15:55;;;;;;;33.72;21.90;;;;;;;;;;5079678;28;20056;-59
2023/12/01 00:18:21;;;;;;;36.47;23.13;;;;;;;;;;5082643;28;20048;-59
2023/12/01 00:20:48;;;;;;;34.88;22.63;;;;;;;;;;5076653;28;20048;-59
2023/12/01 00:23:15;;;;;;;34.67;22.45;;;;;;;;;;5073667;28;20044;-59
2023/12/01 00:25:44;;;;;;;35.70;23.10;;;;;;;;;;5074019;28;20053;-59
2023/12/01 00:28:10;;;;;;;33.35;22.30;;;;;;;;;;5081540;28;20052;-59
2023/12/01 00:30:37;;;;;;;32.65;22.10;;;;;;;;;;5089004;28;20063;-59
2023/12/01 00:33:04;;;;;;;32.20;21.90;;;;;;;;;;5093708;28;20048;-59
2023/12/01 00:35:31;;;;;;;33.67;22.50;;;;;;;;;;5093543;28;20055;-59
2023/12/01 00:37:58;;;;;;;33.72;22.08;;;;;;;;;;5094056;28;20078;-59
2023/12/01 00:40:25;;;;;;;31.75;21.05;;;;;;;;;;5080908;28;20067;-59
2023/12/01 00:42:53;;;;;;;31.70;21.30;;;;;;;;;;5080045;28;20412;-59
2023/12/01 00:45:20;;;;;;;35.50;23.55;;;;;;;;;;5082998;28;20056;-59
2023/12/01 00:47:47;;;;;;;33.28;23.17;;;;;;;;;;5081055;28;20067;-59
2023/12/01 00:50:14;;;;;;;32.70;21.98;;;;;;;;;;5083343;28;20063;-58
2023/12/01 00:52:41;;;;;;;33.03;22.42;;;;;;;;;;5081924;28;20401;-58
2023/12/01 00:55:08;;;;;;;34.83;22.67;;;;;;;;;;5085580;28;20052;-58
2023/12/01 00:57:34;;;;;;;36.67;23.02;;;;;;;;;;5082045;28;20051;-58
2023/12/01 01:00:05;;;;;;;33.83;22.23;;;;;;;;;;5082479;28;20063;-58
2023/12/01 01:02:33;;;;;;;35.08;22.77;;;;;;;;;;5082432;28;20051;-58
2023/12/01 01:05:00;;;;;;;34.28;22.77;;;;;;;;;;5081090;28;20052;-59
2023/12/01 01:07:27;;;;;;;34.28;21.83;;;;;;;;;;5082143;28;20079;-58
2023/12/01 01:09:53;;;;;;;34.53;21.95;;;;;;;;;;5081491;28;20508;-58
2023/12/01 01:12:20;;;;;;;38.03;23.20;;;;;;;;;;5083524;28;20386;-59
2023/12/01 01:14:47;;;;;;;34.20;21.90;;;;;;;;;;5086026;28;20048;-57
2023/12/01 01:17:15;;;;;;;34.28;22.52;;;;;;;;;;5093198;28;20503;-58
2023/12/01 01:19:43;;;;;;;35.92;21.38;;;;;;;;;;5092814;28;20055;-58
2023/12/01 01:22:09;;;;;;;34.05;22.35;;;;;;;;;;5093167;28;20052;-58
2023/12/01 01:24:36;;;;;;;34.70;22.20;;;;;;;;;;5087331;28;20367;-58
2023/12/01 01:27:03;;;;;;;36.85;22.55;;;;;;;;;;5082445;28;20052;-59
2023/12/01 01:29:30;;;;;;;35.95;21.55;;;;;;;;;;5082288;28;20052;-58
2023/12/01 01:31:57;;;;;;;33.90;20.40;;;;;;;;;;5079093;28;20428;-58
2023/12/01 01:34:27;;;;;;;35.88;21.50;;;;;;;;;;5080694;28;20041;-58
2023/12/01 01:36:53;;;;;;;;;;;;;;;;;;5072652;28;20512;-59
2023/12/01 01:39:20;;;;;;;34.35;21.48;;;;;;;;;;5078151;28;19927;-58
2023/12/01 01:41:47;;;;;;;35.15;22.40;;;;;;;;;;5080571;28;20055;-58
2023/12/01 01:44:14;;;;;;;38.08;22.63;;;;;;;;;;5081970;28;20110;-58
2023/12/01 01:46:40;;;;;;;36.15;21.95;;;;;;;;;;5078798;28;20055;-58
2023/12/01 01:49:07;;;;;;;35.38;22.05;;;;;;;;;;5079947;28;20056;-58
2023/12/01 01:51:35;;;;;;;37.92;23.48;;;;;;;;;;5081204;28;20048;-58
2023/12/01 01:54:03;;;;;;;37.17;23.75;;;;;;;;;;5077570;28;20048;-58
2023/12/01 01:56:31;;;;;;;42.85;24.35;;;;;;;;;;5080100;28;20052;-58
2023/12/01 01:58:58;;;;;;;39.40;24.20;;;;;;;;;;5079911;28;20054;-58
2023/12/01 02:01:25;;;;;;;40.25;24.10;;;;;;;;;;5082099;28;20052;-58
2023/12/01 02:03:52;;;;;;;38.13;23.42;;;;;;;;;;5078181;28;20489;-58
2023/12/01 02:06:19;;;;;;;36.10;22.48;;;;;;;;;;5077340;28;20052;-58
2023/12/01 02:08:47;;;;;;;39.38;23.38;;;;;;;;;;5074836;28;20059;-59
2023/12/01 02:11:14;;;;;;;40.42;23.55;;;;;;;;;;5080800;28;20049;-59
2023/12/01 02:13:41;;;;;;;38.15;23.20;;;;;;;;;;5079920;28;20044;-59
2023/12/01 02:16:10;;;;;;;35.65;21.98;;;;;;;;;;5080472;28;20071;-59
2023/12/01 02:18:36;;;;;;;34.95;22.45;;;;;;;;;;5079939;28;20048;-59
2023/12/01 02:21:03;;;;;;;35.28;21.42;;;;;;;;;;5080136;28;20045;-59
2023/12/01 02:23:32;;;;;;;42.20;24.15;;;;;;;;;;5080152;28;20056;-59
2023/12/01 02:25:58;;;;;;;36.30;22.05;;;;;;;;;;5079245;28;20064;-58
2023/12/01 02:28:25;;;;;;;35.15;21.33;;;;;;;;;;5080339;28;20424;-58
2023/12/01 02:30:54;;;;;;;36.40;22.13;;;;;;;;;;5080126;28;20048;-58
2023/12/01 02:33:21;;;;;;;36.70;21.67;;;;;;;;;;5080059;28;20044;-58
2023/12/01 02:35:48;;;;;;;38.65;21.20;;;;;;;;;;5078111;28;20477;-58
2023/12/01 02:38:15;;;;;;;35.45;20.00;;;;;;;;;;5080853;28;20409;-58
2023/12/01 02:40:44;;;;;;;29.98;19.30;;;;;;;;;;5079967;28;20056;-58
2023/12/01 02:43:11;;;;;;;34.40;19.98;;;;;;;;;;5085483;28;20051;-58
2023/12/01 02:45:38;;;;;;;37.78;20.30;;;;;;;;;;5091605;28;20338;-58
2023/12/01 02:48:05;;;;;;;35.15;20.58;;;;;;;;;;5091594;28;20048;-58
2023/12/01 02:50:32;;;;;;;33.13;20.60;;;;;;;;;;5078969;28;20059;-58
2023/12/01 02:52:59;;;;;;;34.83;20.88;;;;;;;;;;5081038;28;20400;-59
2023/12/01 02:55:26;;;;;;;43.95;25.15;;;;;;;;;;5081300;28;20071;-59
2023/12/01 02:57:54;;;;;;;45.80;24.88;;;;;;;;;;5080470;28;20055;-58
2023/12/01 03:00:22;;;;;;;47.83;26.70;;;;;;;;;;5081484;28;20045;-59
2023/12/01 03:02:50;;;;;;;43.55;25.92;;;;;;;;;;5074324;28;20057;-59
2023/12/01 03:05:17;;;;;;;46.33;26.35;;;;;;;;;;5074290;28;20041;-59
2023/12/01 03:07:44;;;;;;;45.33;25.42;;;;;;;;;;5074933;28;20429;-59
2023/12/01 03:10:11;;;;;;;39.65;24.13;;;;;;;;;;5074580;28;20067;-59
2023/12/01 03:12:38;;;;;;;39.50;23.05;;;;;;;;;;5075647;28;20053;-59
2023/12/01 03:15:08;;;;;;;40.25;23.73;;;;;;;;;;5079860;28;20044;-58
2023/12/01 03:17:35;;;;;;;41.58;24.52;;;;;;;;;;5081338;28;20053;-59
2023/12/01 03:20:07;;;;;;;40.28;23.80;;;;;;;;;;5088702;28;20386;-59
2023/12/01 03:22:35;;;;;;;37.25;22.58;;;;;;;;;;5095815;28;20405;-59
2023/12/01 03:25:02;;;;;;;29.63;18.13;;;;;;;;;;5094860;28;20445;-59
2023/12/01 03:27:29;;;;;;;28.10;17.10;;;;;;;;;;5087388;28;20051;-59
2023/12/01 03:29:56;;;;;;;31.23;18.73;;;;;;;;;;5083518;28;20056;-59
2023/12/01 03:32:24;;;;;;;26.40;15.63;;;;;;;;;;5080825;28;20060;-59
2023/12/01 03:34:51;;;;;;;26.27;16.33;;;;;;;;;;5081486;28;20044;-59
2023/12/01 03:37:18;;;;;;;23.25;15.18;;;;;;;;;;5083394;28;20052;-59
2023/12/01 03:39:45;;;;;;;26.17;15.52;;;;;;;;;;5083430;28;20481;-59
2023/12/01 03:42:12;;;;;;;22.13;14.63;;;;;;;;;;5083049;28;20052;-59
2023/12/01 03:44:39;;;;;;;24.10;15.05;;;;;;;;;;5084773;28;20063;-60
2023/12/01 03:47:08;;;;;;;24.98;16.08;;;;;;;;;;5084712;28;20045;-59
2023/12/01 03:49:36;;;;;;;24.83;15.93;;;;;;;;;;5082893;28;20048;-59
2023/12/01 03:52:03;;;;;;;27.90;15.10;;;;;;;;;;5074685;28;20393;-59
2023/12/01 03:54:30;;;;;;;28.27;15.95;;;;;;;;;;5074238;28;20048;-58
2023/12/01 03:56:57;;;;;;;29.13;17.50;;;;;;;;;;5080757;28;20052;-59
2023/12/01 03:59:25;;;;;;;30.50;18.38;;;;;;;;;;5081664;28;20055;-59
2023/12/01 04:01:52;;;;;;;31.20;18.52;;;;;;;;;;5074576;28;20056;-58
2023/12/01 04:04:22;;;;;;;29.33;18.10;;;;;;;;;;5074203;28;20056;-59
2023/12/01 04:06:48;;;;;;;;;;;;;;;;;;5075066;28;20112;-58
2023/12/01 04:09:16;;;;;;;29.45;17.20;;;;;;;;;;5076431;28;20293;-58
2023/12/01 04:11:44;;;;;;;28.13;16.95;;;;;;;;;;5083304;28;20048;-58
2023/12/01 04:14:11;;;;;;;27.15;16.52;;;;;;;;;;5083263;28;20472;-58
2023/12/01 04:16:38;;;;;;;28.80;17.17;;;;;;;;;;5082183;28;20071;-58
2023/12/01 04:19:05;;;;;;;31.17;18.90;;;;;;;;;;5082503;28;20048;-58
2023/12/01 04:21:32;;;;;;;32.47;19.98;;;;;;;;;;5083614;28;20055;-58
2023/12/01 04:24:00;;;;;;;32.95;19.70;;;;;;;;;;5078789;28;20068;-58
2023/12/01 04:26:28;;;;;;;29.40;18.25;;;;;;;;;;5081788;28;20060;-58
2023/12/01 04:28:55;;;;;;;28.77;17.95;;;;;;;;;;5077758;28;20060;-59
2023/12/01 04:31:22;;;;;;;25.67;16.42;;;;;;;;;;5074060;28;20071;-58
2023/12/01 04:33:48;;;;;;;29.58;17.27;;;;;;;;;;5077614;28;20048;-59
2023/12/01 04:36:15;;;;;;;26.30;16.10;;;;;;;;;;5084280;28;20055;-58
2023/12/01 04:38:43;;;;;;;25.33;15.55;;;;;;;;;;5080079;28;20053;-58
2023/12/01 04:41:10;;;;;;;26.52;15.57;;;;;;;;;;5073381;28;20071;-59
2023/12/01 04:43:39;;;;;;;24.55;15.25;;;;;;;;;;5079190;28;20056;-58
2023/12/01 04:46:07;;;;;;;19.85;12.55;;;;;;;;;;5083064;28;20048;-58
2023/12/01 04:48:34;;;;;;;20.33;12.98;;;;;;;;;;5080472;28;20067;-58
2023/12/01 04:51:02;;;;;;;20.55;13.07;;;;;;;;;;5078504;28;20404;-59
2023/12/01 04:53:29;;;;;;;22.17;13.60;;;;;;;;;;5084577;28;20052;-58
2023/12/01 04:55:56;;;;;;;22.42;13.73;;;;;;;;;;5080532;28;20052;-58
2023/12/01 04:58:23;;;;;;;26.10;15.60;;;;;;;;;;5081753;28;20071;-58
2023/12/01 05:00:51;;;;;;;32.42;18.52;;;;;;;;;;5082676;28;20055;-58
2023/12/01 05:03:18;;;;;;;33.15;18.60;;;;;;;;;;5083857;28;20066;-58
2023/12/01 05:05:45;;;;;;;28.42;17.67;;;;;;;;;;5084532;28;20359;-59
2023/12/01 05:08:11;;;;;;;29.52;18.27;;;;;;;;;;5079859;28;20056;-58
2023/12/01 05:10:38;;;;;;;30.20;17.83;;;;;;;;;;5081392;28;20071;-59
2023/12/01 05:13:06;;;;;;;30.85;17.23;;;;;;;;;;5081203;28;20048;-58
2023/12/01 05:15:33;;;;;;;32.63;18.80;;;;;;;;;;5081766;28;20040;-58
2023/12/01 05:18:02;;;;;;;30.92;17.70;;;;;;;;;;5081274;28;20048;-58
2023/12/01 05:20:29;;;;;;;27.33;16.30;;;;;;;;;;5080119;28;20044;-58
2023/12/01 05:22:57;;;;;;;29.17;17.48;;;;;;;;;;5080781;28;20044;-58
2023/12/01 05:25:25;;;;;;;25.70;14.75;;;;;;;;;;5074209;28;20516;-58
2023/12/01 05:27:53;;;;;;;26.33;15.65;;;;;;;;;;5072614;28;20048;-58
2023/12/01 05:30:21;;;;;;;25.13;15.77;;;;;;;;;;5072764;28;20071;-58
2023/12/01 05:32:48;;;;;;;25.13;15.73;;;;;;;;;;5076124;28;20053;-58
2023/12/01 05:35:17;;;;;;;23.48;14.48;;;;;;;;;;5083349;28;20052;-58
2023/12/01 05:37:47;;;;;;;27.02;15.65;;;;;;;;;;5084180;28;21555;-58
2023/12/01 05:40:15;;;;;;;23.35;14.75;;;;;;;;;;5083060;28;20055;-59
2023/12/01 05:42:42;;;;;;;28.80;16.13;;;;;;;;;;5082049;28;20054;-58
2023/12/01 05:45:11;;;;;;;25.90;14.95;;;;;;;;;;5080008;28;20045;-57
2023/12/01 05:47:42;;;;;;;25.48;15.88;;;;;;;;;;5082904;28;20170;-58
2023/12/01 05:50:13;;;;;;;23.30;14.60;;;;;;;;;;5070149;28;20056;-58
2023/12/01 05:52:42;;;;;;;24.05;14.65;;;;;;;;;;5077094;28;20056;-58
2023/12/01 05:55:14;;;;;;;23.15;14.13;;;;;;;;;;5083143;28;20040;-58
2023/12/01 05:57:42;;;;;;;22.33;13.68;;;;;;;;;;5083620;28;20048;-58
2023/12/01 06:00:12;;;;;;;24.25;15.30;;;;;;;;;;5079738;28;20500;-58
2023/12/01 06:02:40;;;;;;;22.80;13.55;;;;;;;;;;5075861;28;20063;-58
2023/12/01 06:05:07;;;;;;;24.08;14.07;;;;;;;;;;5076850;28;20055;-58
2023/12/01 06:07:35;;;;;;;25.60;16.17;;;;;;;;;;5073608;28;20067;-58
2023/12/01 06:10:03;;;;;;;26.08;15.40;;;;;;;;;;5082200;28;20067;-58
2023/12/01 06:12:30;;;;;;;25.08;15.60;;;;;;;;;;5080887;28;20469;-58
2023/12/01 06:14:57;;;;;;;23.80;14.63;;;;;;;;;;5080530;28;20129;-59
2023/12/01 06:17:23;;;;;;;22.80;14.23;;;;;;;;;;5082471;28;20076;-58
2023/12/01 06:19:50;;;;;;;21.77;13.13;;;;;;;;;;5085834;28;20044;-58
2023/12/01 06:22:17;;;;;;;22.30;13.40;;;;;;;;;;5077860;28;20434;-59
2023/12/01 06:24:44;;;;;;;19.58;12.45;;;;;;;;;;5079346;28;20064;-58
2023/12/01 06:27:12;;;;;;;18.50;12.38;;;;;;;;;;5081772;28;20044;-59
2023/12/01 06:29:39;;;;;;;18.05;11.55;;;;;;;;;;5083825;28;20529;-59
2023/12/01 06:32:06;;;;;;;19.63;12.75;;;;;;;;;;5080312;28;20048;-58
2023/12/01 06:34:33;;;;;;;20.65;12.85;;;;;;;;;;5078343;28;20059;-57
2023/12/01 06:37:00;;;;;;;20.33;13.65;;;;;;;;;;5085581;28;20499;-58
2023/12/01 06:39:27;;;;;;;19.38;12.90;;;;;;;;;;5086706;28;20421;-57
2023/12/01 06:41:54;;;;;;;19.75;12.63;;;;;;;;;;5087479;28;20423;-58
2023/12/01 06:44:23;;;;;;;18.92;12.15;;;;;;;;;;5088713;28;20067;-59
2023/12/01 06:46:50;;;;;;;19.05;11.95;;;;;;;;;;5077393;28;20048;-58
2023/12/01 06:49:16;;;;;;;19.52;12.77;;;;;;;;;;5084943;28;20053;-58
2023/12/01 06:51:43;;;;;;;20.48;12.90;;;;;;;;;;5086346;28;20057;-57
2023/12/01 06:54:10;;;;;;;22.15;13.43;;;;;;;;;;5081978;28;20052;-57
2023/12/01 06:56:37;;;;;;;19.52;12.70;;;;;;;;;;5084111;28;20052;-57
2023/12/01 06:59:04;;;;;;;21.15;13.30;;;;;;;;;;5081317;28;20055;-58
2023/12/01 07:01:35;;;;;;;22.23;14.18;;;;;;;;;;5083556;28;20480;-58
2023/12/01 07:04:07;;;;;;;20.63;13.38;;;;;;;;;;5083823;28;20059;-57
2023/12/01 07:06:34;;;;;;;20.38;13.00;;;;;;;;;;5081794;28;20044;-60
2023/12/01 07:09:01;;;;;;;21.13;14.00;;;;;;;;;;5087111;28;20048;-58
2023/12/01 07:11:28;;;;;;;21.38;13.57;;;;;;;;;;5086593;28;20052;-60
2023/12/01 07:13:55;;;;;;;18.25;12.10;;;;;;;;;;5083951;28;20508;-59
2023/12/01 07:16:22;;;;;;;21.02;13.77;;;;;;;;;;5085041;28;20392;-57
2023/12/01 07:18:51;;;;;;;22.17;14.00;;;;;;;;;;5085481;28;20075;-57
2023/12/01 07:21:17;;;;;;;22.10;14.07;;;;;;;;;;5081508;28;20052;-58
2023/12/01 07:23:46;;;;;;;22.23;13.60;;;;;;;;;;5082516;28;20052;-58
2023/12/01 07:26:12;;;;;;;20.30;13.95;;;;;;;;;;5084192;28;20055;-58
2023/12/01 07:28:39;;;;;;;21.08;13.77;;;;;;;;;;5087574;28;20050;-59
2023/12/01 07:31:06;;;;;;;19.92;12.45;;;;;;;;;;5082365;28;20047;-59
2023/12/01 07:33:33;;;;;;;15.32;10.48;;;;;;;;;;5085473;28;20059;-58
2023/12/01 07:36:01;;;;;;;12.10;8.52;;;;;;;;;;5085579;28;20051;-58
2023/12/01 07:38:28;;;;;;;13.48;9.45;;;;;;;;;;5085540;28;20572;-58
2023/12/01 07:40:54;;;;;;;13.73;9.50;;;;;;;;;;5081180;28;20063;-58
2023/12/01 07:43:22;;;;;;;15.98;11.23;;;;;;;;;;5087120;28;20060;-58
2023/12/01 07:45:48;;;;;;;19.65;13.02;;;;;;;;;;5086550;28;20040;-58
2023/12/01 07:48:15;;;;;;;16.27;10.75;;;;;;;;;;5083821;28;20421;-58
2023/12/01 07:50:44;;;;;;;17.45;11.20;;;;;;;;;;5084580;28;20052;-58
2023/12/01 07:53:13;;;;;;;19.67;12.43;;;;;;;;;;5077066;28;20048;-57
2023/12/01 07:55:42;;;;;;;18.50;12.82;;;;;;;;;;5088058;28;20047;-58
2023/12/01 07:58:09;;;;;;;19.70;13.02;;;;;;;;;;5083338;28;20056;-57
2023/12/01 08:00:40;;;;;;;32.70;21.20;;;;;;;;;;5085573;28;20048;-58
2023/12/01 08:03:07;;;;;;;23.92;15.48;;;;;;;;;;5087333;28;20052;-58
2023/12/01 08:05:34;;;;;;;22.67;14.82;;;;;;;;;;5085447;28;20057;-58
2023/12/01 08:08:03;;;;;;;22.20;14.88;;;;;;;;;;5084047;28;20052;-58
2023/12/01 08:10:31;;;;;;;21.20;14.05;;;;;;;;;;5080825;28;20056;-58
2023/12/01 08:12:58;;;;;;;21.13;13.90;;;;;;;;;;5079336;28;20056;-59
2023/12/01 08:15:25;;;;;;;20.85;13.95;;;;;;;;;;5080123;28;20048;-61
2023/12/01 08:17:51;;;;;;;19.52;12.55;;;;;;;;;;5083182;28;20055;-58
2023/12/01 08:20:19;;;;;;;17.92;12.40;;;;;;;;;;5080616;28;20053;-59
2023/12/01 08:22:46;;;;;;;20.02;13.35;;;;;;;;;;5081032;28;20055;-59
2023/12/01 08:25:14;;;;;;;18.65;11.88;;;;;;;;;;5082769;28;20051;-61
2023/12/01 08:27:42;;;;;;;18.75;12.35;;;;;;;;;;5083055;28;20063;-59
2023/12/01 08:30:10;;;;;;;21.33;13.80;;;;;;;;;;5081402;28;20063;-60
2023/12/01 08:32:37;;;;;;;20.27;14.20;;;;;;;;;;5082144;28;20057;-59
2023/12/01 08:35:05;;;;;;;23.25;14.00;;;;;;;;;;5082724;28;20055;-60
2023/12/01 08:37:31;;;;;;;21.38;13.35;;;;;;;;;;5081694;28;20055;-61
2023/12/01 08:39:58;;;;;;;21.08;13.68;;;;;;;;;;5083818;28;20509;-58
2023/12/01 08:42:25;;;;;;;20.90;14.57;;;;;;;;;;5083414;28;20064;-59
2023/12/01 08:44:53;;;;;;;22.98;14.40;;;;;;;;;;5078593;28;20119;-60
2023/12/01 08:47:21;;;;;;;23.38;14.73;;;;;;;;;;5079752;28;20048;-60
2023/12/01 08:49:49;;;;;;;22.58;14.43;;;;;;;;;;5080935;28;20420;-59
2023/12/01 08:52:16;;;;;;;26.40;16.73;;;;;;;;;;5079018;28;20055;-59
2023/12/01 08:54:43;;;;;;;24.52;15.10;;;;;;;;;;5083432;28;20413;-59
2023/12/01 08:57:10;;;;;;;24.08;16.25;;;;;;;;;;5079310;28;20392;-59
2023/12/01 08:59:37;;;;;;;26.67;16.75;;;;;;;;;;5091479;28;20044;-59
2023/12/01 09:02:06;;;;;;;25.40;15.93;;;;;;;;;;5086080;28;20052;-60
2023/12/01 09:04:33;;;;;;;27.33;17.35;;;;;;;;;;5076642;28;20044;-58
2023/12/01 09:07:00;;;;;;;30.77;17.95;;;;;;;;;;5090582;28;20048;-59
2023/12/01 09:09:27;;;;;;;28.38;17.55;;;;;;;;;;5080852;28;20048;-59
2023/12/01 09:11:53;;;;;;;28.63;17.58;;;;;;;;;;5080777;28;20052;-59
2023/12/01 09:14:20;;;;;;;29.45;18.80;;;;;;;;;;5076677;28;20055;-59
2023/12/01 09:16:47;;;;;;;26.73;17.35;;;;;;;;;;5084535;28;20070;-59
2023/12/01 09:19:15;;;;;;;27.83;17.25;;;;;;;;;;5082792;28;20048;-59
2023/12/01 09:21:42;;;;;;;29.17;18.77;;;;;;;;;;5083804;28;20053;-59
2023/12/01 09:24:09;;;;;;;32.40;20.10;;;;;;;;;;5069982;28;20045;-59
2023/12/01 09:26:35;;;;;;;28.90;17.23;;;;;;;;;;5069588;28;20049;-58
2023/12/01 09:29:02;;;;;;;27.92;17.50;;;;;;;;;;5080510;28;20458;-59
2023/12/01 09:31:29;;;;;;;26.90;17.15;;;;;;;;;;5083472;28;20055;-59
2023/12/01 09:33:56;;;;;;;28.27;17.55;;;;;;;;;;5079969;28;20072;-59
2023/12/01 09:36:26;;;;;;;28.38;17.95;;;;;;;;;;5078035;28;20045;-60
2023/12/01 09:38:52;;;;;;;;;;;;;;;;;;5071230;28;20072;-60
2023/12/01 09:41:19;;;;;;;26.40;16.65;;;;;;;;;;5078065;28;19928;-58
2023/12/01 09:43:48;;;;;;;29.92;17.77;;;;;;;;;;5072929;28;20070;-59
2023/12/01 09:46:15;;;;;;;27.38;17.70;;;;;;;;;;5078061;28;20052;-58
2023/12/01 09:48:42;;;;;;;26.98;17.67;;;;;;;;;;5082193;28;20056;-60
2023/12/01 09:51:09;;;;;;;30.65;18.88;;;;;;;;;;5080095;28;20059;-61
2023/12/01 09:53:38;;;;;;;31.60;19.52;;;;;;;;;;5080755;28;20061;-61
2023/12/01 09:56:05;;;;;;;27.50;16.20;;;;;;;;;;5083175;28;20054;-61
2023/12/01 09:58:32;;;;;;;28.40;17.05;;;;;;;;;;5085413;28;20044;-60
2023/12/01 10:00:59;;;;;;;28.33;17.90;;;;;;;;;;5077901;28;20064;-60
2023/12/01 10:03:27;;;;;;;25.38;15.82;;;;;;;;;;5078294;28;20057;-58
2023/12/01 10:05:54;;;;;;;28.95;18.33;;;;;;;;;;5073630;28;20059;-59
2023/12/01 10:08:21;;;;;;;26.65;17.15;;;;;;;;;;5082945;28;20048;-59
2023/12/01 10:10:49;;;;;;;29.58;17.33;;;;;;;;;;5084780;28;20063;-58
2023/12/01 10:13:16;;;;;;;30.20;20.17;;;;;;;;;;5078882;28;20413;-59
2023/12/01 10:15:43;;;;;;;27.52;17.27;;;;;;;;;;5084161;28;20059;-59
2023/12/01 10:18:11;;;;;;;25.75;17.88;;;;;;;;;;5075458;28;20055;-59
2023/12/01 10:20:39;;;;;;;28.10;17.75;;;;;;;;;;5087725;28;20056;-60
2023/12/01 10:23:16;;;;;;;27.88;18.60;;;;;;;;;;5072718;28;20055;-59
2023/12/01 10:25:46;;;;;;;27.63;17.38;;;;;;;;;;5082737;28;20056;-59
2023/12/01 10:28:15;;;;;;;28.98;18.13;;;;;;;;;;5083890;28;20420;-59
2023/12/01 10:30:52;;;;;;;34.58;21.27;;;;;;;;;;5077768;28;20378;-59
2023/12/01 10:33:19;;;;;;;30.52;18.65;;;;;;;;;;5085339;28;20408;-59
2023/12/01 10:35:58;;;;;;;27.98;17.65;;;;;;;;;;5077789;28;20052;-59
2023/12/01 10:38:25;;;;;;;31.75;18.42;;;;;;;;;;5075048;28;20067;-59
2023/12/01 10:40:52;;;;;;;30.85;19.95;;;;;;;;;;5075763;28;20077;-59
2023/12/01 10:43:21;;;;;;;28.65;18.17;;;;;;;;;;5077005;28;20139;-59
2023/12/01 10:45:48;;;;;;;29.50;18.92;;;;;;;;;;5074736;28;20052;-59
2023/12/01 10:48:15;;;;;;;33.28;19.92;;;;;;;;;;5080457;28;20044;-61
2023/12/01 10:50:43;;;;;;;34.70;20.75;;;;;;;;;;5081871;28;20062;-59
2023/12/01 10:53:10;;;;;;;30.10;19.02;;;;;;;;;;5078977;28;20465;-59
2023/12/01 10:55:37;;;;;;;30.98;19.05;;;;;;;;;;5077966;28;20060;-60
2023/12/01 10:58:05;;;;;;;31.98;19.65;;;;;;;;;;5076017;28;20047;-59
2023/12/01 11:00:35;;;;;;;36.35;21.17;;;;;;;;;;5075774;28;20405;-58
2023/12/01 11:03:04;;;;;;;35.40;21.75;;;;;;;;;;5077452;28;20048;-60
2023/12/01 11:05:31;;;;;;;34.45;21.50;;;;;;;;;;5077186;28;20051;-59
2023/12/01 11:08:06;;;;;;;53.17;29.40;;;;;;;;;;5077489;28;20055;-59
2023/12/01 11:10:39;;;;;;;37.17;23.13;;;;;;;;;;5076958;28;20052;-59
2023/12/01 11:13:14;;;;;;;37.50;22.70;;;;;;;;;;5079715;28;20044;-59
2023/12/01 11:15:44;;;;;;;41.03;24.33;;;;;;;;;;5079554;28;20056;-59
2023/12/01 11:18:10;;;;;;;;;;;;;;;;;;5074500;28;20052;-59
2023/12/01 11:20:39;;;;;;;39.17;22.45;;;;;;;;;;5082329;28;20283;-59
2023/12/01 11:23:06;;;;;;;46.70;26.60;;;;;;;;;;5083215;28;20059;-59
2023/12/01 11:25:43;;;;;;;38.90;24.00;;;;;;;;;;5076053;28;20060;-59
2023/12/01 11:28:20;;;;;;;37.13;23.50;;;;;;;;;;5080215;28;20044;-59
2023/12/01 11:31:03;;;;;;;38.38;24.15;;;;;;;;;;5082264;28;20048;-59
2023/12/01 11:33:33;;;;;;;37.28;24.30;;;;;;;;;;5081387;28;20056;-58
2023/12/01 11:36:18;;;;;;;37.40;22.15;;;;;;;;;;5080352;28;20075;-59
2023/12/01 11:39:00;;;;;;;35.08;21.70;;;;;;;;;;5076145;28;20056;-58
2023/12/01 11:41:28;;;;;;;33.22;21.60;;;;;;;;;;5078866;28;20396;-59
2023/12/01 11:44:01;;;;;;;35.22;22.02;;;;;;;;;;5082464;28;20052;-59
2023/12/01 11:46:30;;;;;;;31.67;20.23;;;;;;;;;;5075227;28;20051;-58
2023/12/01 11:48:57;;;;;;;35.00;21.95;;;;;;;;;;5083085;28;20052;-58
2023/12/01 11:51:27;;;;;;;38.22;23.08;;;;;;;;;;5082162;28;20048;-60
2023/12/01 11:53:58;;;;;;;31.40;20.25;;;;;;;;;;5085893;28;20369;-59
2023/12/01 11:56:25;;;;;;;33.00;21.60;;;;;;;;;;5077749;28;20061;-58
2023/12/01 11:58:52;;;;;;;33.03;20.30;;;;;;;;;;5084674;28;20070;-58
2023/12/01 12:01:19;;;;;;;35.08;20.95;;;;;;;;;;5077981;28;20059;-58
2023/12/01 12:03:53;;;;;;;33.42;20.77;;;;;;;;;;5077710;28;20045;-59
2023/12/01 12:06:20;;;;;;;32.97;20.52;;;;;;;;;;5080854;28;20052;-58
2023/12/01 12:08:47;;;;;;;32.63;21.15;;;;;;;;;;5083132;28;20482;-58
2023/12/01 12:11:14;;;;;;;34.72;22.17;;;;;;;;;;5080071;28;20063;-59
2023/12/01 12:13:40;;;;;;;35.05;22.08;;;;;;;;;;5081375;28;20048;-59
2023/12/01 12:16:08;;;;;;;32.78;21.75;;;;;;;;;;5079783;28;20064;-58
2023/12/01 12:18:35;;;;;;;33.97;22.23;;;;;;;;;;5079035;28;20067;-59
2023/12/01 12:21:04;;;;;;;33.70;21.33;;;;;;;;;;5083878;28;20396;-58
2023/12/01 12:23:31;;;;;;;30.90;20.30;;;;;;;;;;5078034;28;20347;-59
2023/12/01 12:26:13;;;;;;;30.58;19.80;;;;;;;;;;5082037;28;20481;-58
2023/12/01 12:28:40;;;;;;;29.63;19.30;;;;;;;;;;5071188;28;20053;-58
2023/12/01 12:31:07;;;;;;;31.13;20.30;;;;;;;;;;5081111;28;20048;-58
2023/12/01 12:33:35;;;;;;;31.17;20.02;;;;;;;;;;5079277;28;20068;-59
2023/12/01 12:36:02;;;;;;;30.27;20.48;;;;;;;;;;5083464;28;20059;-59
2023/12/01 12:38:30;;;;;;;32.60;20.73;;;;;;;;;;5074801;28;20063;-58
2023/12/01 12:40:57;;;;;;;30.38;18.10;;;;;;;;;;5084332;28;20055;-59
2023/12/01 12:43:24;;;;;;;30.25;20.38;;;;;;;;;;5079135;28;20056;-58
2023/12/01 12:45:51;;;;;;;32.28;20.42;;;;;;;;;;5084518;28;20396;-60
2023/12/01 12:48:17;;;;;;;35.72;21.33;;;;;;;;;;5086521;28;20338;-58
2023/12/01 12:50:46;;;;;;;32.30;20.10;;;;;;;;;;5075346;28;20060;-58
2023/12/01 12:53:14;;;;;;;35.92;23.52;;;;;;;;;;5079394;28;20047;-58
2023/12/01 12:55:43;;;;;;;30.10;20.45;;;;;;;;;;5084972;28;20048;-58
2023/12/01 12:58:09;;;;;;;34.85;21.40;;;;;;;;;;5078947;28;20048;-58
2023/12/01 13:00:36;;;;;;;31.70;20.30;;;;;;;;;;5089224;28;20044;-58
2023/12/01 13:03:03;;;;;;;29.35;18.45;;;;;;;;;;5079725;28;20059;-59
2023/12/01 13:05:30;;;;;;;29.40;18.05;;;;;;;;;;5081550;28;20059;-59
2023/12/01 13:07:57;;;;;;;41.78;23.15;;;;;;;;;;5080106;28;20056;-58
2023/12/01 13:10:24;;;;;;;35.85;21.42;;;;;;;;;;5071221;28;20048;-59
2023/12/01 13:12:53;;;;;;;35.67;20.77;;;;;;;;;;5080345;28;20052;-58
2023/12/01 13:15:19;;;;;;;35.60;20.80;;;;;;;;;;5085242;28;20055;-59
2023/12/01 13:17:46;;;;;;;31.55;18.83;;;;;;;;;;5082142;28;20420;-61
2023/12/01 13:20:13;;;;;;;36.88;23.52;;;;;;;;;;5083452;28;20072;-59
2023/12/01 13:22:40;;;;;;;30.63;18.50;;;;;;;;;;5084802;28;20052;-59
2023/12/01 13:25:08;;;;;;;27.45;17.77;;;;;;;;;;5082779;28;20044;-59
2023/12/01 13:27:35;;;;;;;27.38;16.52;;;;;;;;;;5079318;28;20063;-59
2023/12/01 13:30:04;;;;;;;29.98;19.20;;;;;;;;;;5084308;28;20500;-60
2023/12/01 13:32:30;;;;;;;32.10;20.55;;;;;;;;;;5080570;28;20064;-58
2023/12/01 13:34:57;;;;;;;27.00;18.33;;;;;;;;;;5079463;28;20055;-58
2023/12/01 13:37:24;;;;;;;28.52;18.20;;;;;;;;;;5080687;28;20052;-58
2023/12/01 13:39:51;;;;;;;30.88;18.45;;;;;;;;;;5086649;28;20055;-58
2023/12/01 13:42:18;;;;;;;26.83;17.00;;;;;;;;;;5087940;28;20056;-59
2023/12/01 13:44:44;;;;;;;31.08;20.05;;;;;;;;;;5081730;28;20044;-59
2023/12/01 13:47:13;;;;;;;25.13;17.48;;;;;;;;;;5082143;28;20387;-59
2023/12/01 13:49:40;;;;;;;26.20;16.67;;;;;;;;;;5082092;28;20551;-58
2023/12/01 13:52:06;;;;;;;25.15;15.93;;;;;;;;;;5083362;28;20044;-60
2023/12/01 13:54:33;;;;;;;26.45;16.25;;;;;;;;;;5074098;28;20052;-58
2023/12/01 13:57:00;;;;;;;27.52;17.85;;;;;;;;;;5080518;28;20064;-59
2023/12/01 13:59:27;;;;;;;28.70;17.52;;;;;;;;;;5084220;28;20405;-59
2023/12/01 14:01:54;;;;;;;25.83;17.10;;;;;;;;;;5082985;28;20052;-59
2023/12/01 14:04:22;;;;;;;26.23;17.17;;;;;;;;;;5088153;28;20484;-59
2023/12/01 14:06:49;;;;;;;25.48;17.00;;;;;;;;;;5081164;28;20052;-59
2023/12/01 14:09:16;;;;;;;25.73;16.92;;;;;;;;;;5079323;28;20047;-59
2023/12/01 14:11:43;;;;;;;26.50;17.73;;;;;;;;;;5083271;28;20056;-59
2023/12/01 14:14:10;;;;;;;27.00;17.40;;;;;;;;;;5077790;28;20481;-59
2023/12/01 14:16:37;;;;;;;29.40;17.98;;;;;;;;;;5076980;28;20063;-63
2023/12/01 14:19:03;;;;;;;27.92;17.92;;;;;;;;;;5083152;28;20052;-59
2023/12/01 14:21:32;;;;;;;27.83;18.30;;;;;;;;;;5077834;28;20055;-59